createdAt,value
2019-04-03T00:02:08.362Z,13.43
2019-04-03T00:04:38.622Z,12.90
2019-04-03T00:07:09.088Z,13.50
2019-04-03T00:09:39.664Z,12.57
2019-04-03T00:12:11.616Z,12.17
2019-04-03T00:14:43.136Z,13.00
2019-04-03T00:17:15.022Z,12.03
2019-04-03T00:19:45.803Z,12.30
2019-04-03T00:22:17.577Z,13.33
2019-04-03T00:24:47.884Z,12.70
2019-04-03T00:27:18.210Z,12.07
2019-04-03T00:29:48.535Z,11.73
2019-04-03T00:32:18.776Z,12.10
2019-04-03T00:34:49.027Z,14.07
2019-04-03T00:37:19.267Z,12.10
2019-04-03T00:39:49.746Z,12.57
2019-04-03T00:42:21.086Z,13.27
2019-04-03T00:44:51.265Z,11.97
2019-04-03T00:47:21.535Z,11.87
2019-04-03T00:49:51.945Z,11.43
2019-04-03T00:52:22.202Z,12.50
2019-04-03T00:54:52.406Z,11.30
2019-04-03T00:57:22.819Z,11.37
2019-04-03T00:59:53.077Z,11.33
2019-04-03T01:02:23.294Z,12.53
2019-04-03T01:04:53.560Z,12.23
2019-04-03T01:07:23.931Z,12.30
2019-04-03T01:09:55.327Z,11.00
2019-04-03T01:12:25.678Z,13.03
2019-04-03T01:14:56.045Z,12.93
2019-04-03T01:17:26.257Z,12.07
2019-04-03T01:19:56.476Z,12.43
2019-04-03T01:22:26.741Z,12.93
2019-04-03T01:24:56.931Z,11.20
2019-04-03T01:27:27.185Z,12.43
2019-04-03T01:29:57.420Z,12.83
2019-04-03T01:32:27.626Z,12.57
2019-04-03T01:34:59.024Z,12.63
2019-04-03T01:37:29.270Z,13.47
2019-04-03T01:39:59.485Z,12.20
2019-04-03T01:42:29.874Z,11.90
2019-04-03T01:45:00.131Z,12.77
2019-04-03T01:47:30.327Z,12.23
2019-04-03T01:50:00.537Z,11.63
2019-04-03T01:52:31.780Z,12.20
2019-04-03T01:55:04.356Z,11.70
2019-04-03T01:57:36.790Z,12.57
2019-04-03T02:00:08.318Z,13.03
2019-04-03T02:02:39.258Z,11.93
2019-04-03T02:05:12.149Z,12.63
2019-04-03T02:07:44.201Z,13.10
2019-04-03T02:10:19.185Z,12.80
2019-04-03T02:12:51.232Z,11.27
2019-04-03T02:15:22.267Z,13.20
2019-04-03T02:17:54.991Z,11.43
2019-04-03T02:20:26.708Z,12.60
2019-04-03T02:22:59.289Z,11.30
2019-04-03T02:25:31.563Z,13.03
2019-04-03T02:28:04.051Z,13.27
2019-04-03T02:30:34.039Z,11.80
2019-04-03T02:33:04.300Z,12.10
2019-04-03T02:35:34.498Z,11.47
2019-04-03T02:38:04.867Z,11.90
2019-04-03T02:40:35.248Z,11.77
2019-04-03T02:43:05.976Z,11.70
2019-04-03T02:45:36.151Z,11.93
2019-04-03T02:48:06.705Z,12.77
2019-04-03T02:50:37.709Z,11.83
2019-04-03T02:53:08.257Z,13.07
2019-04-03T02:55:39.775Z,13.23
2019-04-03T02:58:10.659Z,11.47
2019-04-03T03:00:40.929Z,11.87
2019-04-03T03:03:11.530Z,13.40
2019-04-03T03:05:41.927Z,11.80
2019-04-03T03:08:12.130Z,12.20
2019-04-03T03:10:43.470Z,12.20
2019-04-03T03:13:13.917Z,11.87
2019-04-03T03:15:45.345Z,12.67
2019-04-03T03:18:16.016Z,12.33
2019-04-03T03:20:46.569Z,12.30
2019-04-03T03:23:17.064Z,12.93
2019-04-03T03:25:49.549Z,12.73
2019-04-03T03:28:19.832Z,12.10
2019-04-03T03:30:57.809Z,13.33
2019-04-03T03:33:32.104Z,11.87
2019-04-03T03:35:55.297Z,13.00
2019-04-03T03:38:28.182Z,11.93
2019-04-03T03:40:59.094Z,11.90
2019-04-03T03:43:29.476Z,12.53
2019-04-03T03:46:00.163Z,12.90
2019-04-03T03:48:30.991Z,13.50
2019-04-03T03:51:04.144Z,11.80
2019-04-03T03:53:34.974Z,12.93
2019-04-03T03:56:05.470Z,13.70
2019-04-03T03:58:35.847Z,12.87
2019-04-03T04:01:06.341Z,14.00
2019-04-03T04:03:40.359Z,14.03
2019-04-03T04:06:14.836Z,13.80
2019-04-03T04:08:45.776Z,13.00
2019-04-03T04:11:16.760Z,12.37
2019-04-03T04:13:48.447Z,13.57
2019-04-03T04:16:19.632Z,13.23
2019-04-03T04:18:50.452Z,14.20
2019-04-03T04:21:21.103Z,13.07
2019-04-03T04:23:55.158Z,13.00
2019-04-03T04:26:23.507Z,12.17
2019-04-03T04:28:53.866Z,12.77
2019-04-03T04:31:24.115Z,13.83
2019-04-03T04:33:54.341Z,13.20
2019-04-03T04:36:24.900Z,13.90
2019-04-03T04:38:57.354Z,14.23
2019-04-03T04:41:27.217Z,12.87
2019-04-03T04:43:57.647Z,13.23
2019-04-03T04:46:28.007Z,14.83
2019-04-03T04:48:58.382Z,13.73
2019-04-03T04:51:28.571Z,14.03
2019-04-03T04:53:59.481Z,12.43
2019-04-03T04:56:30.440Z,13.83
2019-04-03T04:59:01.174Z,13.50
2019-04-03T05:01:31.477Z,12.93
2019-04-03T05:04:01.795Z,13.03
2019-04-03T05:06:32.132Z,12.90
2019-04-03T05:09:03.871Z,13.93
2019-04-03T05:11:34.627Z,12.93
2019-04-03T05:14:06.242Z,12.20
2019-04-03T05:16:36.781Z,13.53
2019-04-03T05:19:10.455Z,12.07
2019-04-03T05:21:39.852Z,13.17
2019-04-03T05:24:12.834Z,13.07
2019-04-03T05:26:41.927Z,13.97
2019-04-03T05:29:12.121Z,11.97
2019-04-03T05:31:42.733Z,13.97
2019-04-03T05:34:14.130Z,12.57
2019-04-03T05:36:44.319Z,13.17
2019-04-03T05:39:14.746Z,12.17
2019-04-03T05:41:45.249Z,13.10
2019-04-03T05:44:16.070Z,12.90
2019-04-03T05:46:46.391Z,11.80
2019-04-03T05:49:18.477Z,12.97
2019-04-03T05:51:49.529Z,12.67
2019-04-03T05:54:20.358Z,11.93
2019-04-03T05:56:51.782Z,13.13
2019-04-03T05:59:22.383Z,12.83
2019-04-03T06:01:52.861Z,12.83
2019-04-03T06:04:23.064Z,11.63
2019-04-03T06:06:54.581Z,12.37
2019-04-03T06:09:24.898Z,12.37
2019-04-03T06:11:55.899Z,12.40
2019-04-03T06:14:26.282Z,12.57
2019-04-03T06:16:56.853Z,11.93
2019-04-03T06:19:28.082Z,12.10
2019-04-03T06:21:58.818Z,11.50
2019-04-03T06:24:29.247Z,12.23
2019-04-03T06:26:59.709Z,11.97
2019-04-03T06:29:30.283Z,12.73
2019-04-03T06:32:07.566Z,12.00
2019-04-03T06:34:40.538Z,13.40
2019-04-03T06:37:11.942Z,13.23
2019-04-03T06:39:42.284Z,12.33
2019-04-03T06:42:13.262Z,12.63
2019-04-03T06:44:44.367Z,11.53
2019-04-03T06:47:14.964Z,11.23
2019-04-03T06:49:45.301Z,12.40
2019-04-03T06:52:15.638Z,13.37
2019-04-03T06:54:45.858Z,12.07
2019-04-03T06:57:16.447Z,10.73
2019-04-03T06:59:49.252Z,11.47
2019-04-03T07:02:20.678Z,11.47
2019-04-03T07:04:53.532Z,12.03
2019-04-03T07:07:33.540Z,11.70
2019-04-03T07:09:55.949Z,11.50
2019-04-03T07:12:26.912Z,12.37
2019-04-03T07:14:59.792Z,11.47
2019-04-03T07:17:32.125Z,12.47
2019-04-03T07:20:12.475Z,12.97
2019-04-03T07:22:34.386Z,12.10
2019-04-03T07:25:06.183Z,11.40
2019-04-03T07:27:37.473Z,11.47
2019-04-03T07:30:10.423Z,12.60
2019-04-03T07:32:40.783Z,12.07
2019-04-03T07:35:11.140Z,11.77
2019-04-03T07:37:41.585Z,11.83
2019-04-03T07:40:12.619Z,12.43
2019-04-03T07:42:43.340Z,12.20
2019-04-03T07:45:15.190Z,11.57
2019-04-03T07:47:45.693Z,12.13
2019-04-03T07:50:17.858Z,12.07
2019-04-03T07:52:48.938Z,11.17
2019-04-03T07:55:20.597Z,11.13
2019-04-03T07:57:54.837Z,10.70
2019-04-03T08:00:25.111Z,10.07
2019-04-03T08:02:55.738Z,11.87
2019-04-03T08:05:26.328Z,12.23
2019-04-03T08:07:56.635Z,11.00
2019-04-03T08:10:28.006Z,11.63
2019-04-03T08:12:59.910Z,11.40
2019-04-03T08:15:31.979Z,11.80
2019-04-03T08:18:02.304Z,11.67
2019-04-03T08:20:32.633Z,11.27
2019-04-03T08:23:05.074Z,11.03
2019-04-03T08:25:35.089Z,10.63
2019-04-03T08:28:05.660Z,10.50
2019-04-03T08:30:38.533Z,11.10
2019-04-03T08:33:15.929Z,11.03
2019-04-03T08:35:40.563Z,11.47
2019-04-03T08:38:12.922Z,11.67
2019-04-03T08:40:43.549Z,11.00
2019-04-03T08:43:14.212Z,11.40
2019-04-03T08:45:46.234Z,11.30
2019-04-03T08:48:17.628Z,12.13
2019-04-03T08:50:49.822Z,12.30
2019-04-03T08:53:20.197Z,11.63
2019-04-03T08:55:50.715Z,12.23
2019-04-03T08:58:22.102Z,11.77
2019-04-03T09:00:53.141Z,11.03
2019-04-03T09:03:23.735Z,11.63
2019-04-03T09:05:55.765Z,12.27
2019-04-03T09:08:27.150Z,12.70
2019-04-03T09:10:57.534Z,12.60
2019-04-03T09:13:28.116Z,11.97
2019-04-03T09:15:59.714Z,12.03
2019-04-03T09:18:33.087Z,12.67
2019-04-03T09:21:03.761Z,11.60
2019-04-03T09:23:34.109Z,13.07
2019-04-03T09:26:04.493Z,11.40
2019-04-03T09:28:36.005Z,12.33
2019-04-03T09:31:06.353Z,12.93
2019-04-03T09:33:36.618Z,12.80
2019-04-03T09:36:06.931Z,11.80
2019-04-03T09:38:37.563Z,12.93
2019-04-03T09:41:07.934Z,12.37
2019-04-03T09:43:39.914Z,11.93
2019-04-03T09:46:11.345Z,12.90
2019-04-03T09:48:41.772Z,11.57
2019-04-03T09:51:13.132Z,12.13
2019-04-03T09:53:43.369Z,12.23
2019-04-03T09:56:13.535Z,12.83
2019-04-03T09:58:43.999Z,11.83
2019-04-03T10:01:18.309Z,13.23
2019-04-03T10:03:47.083Z,12.90
2019-04-03T10:06:17.627Z,11.70
2019-04-03T10:08:48.100Z,13.13
2019-04-03T10:11:20.477Z,12.40
2019-04-03T10:13:51.543Z,11.80
2019-04-03T10:16:22.019Z,11.73
2019-04-03T10:18:52.551Z,11.90
2019-04-03T10:21:22.805Z,11.20
2019-04-03T10:23:57.714Z,11.30
2019-04-03T10:26:30.976Z,12.47
2019-04-03T10:29:01.430Z,12.07
2019-04-03T10:31:31.686Z,12.00
2019-04-03T10:34:03.138Z,12.60
2019-04-03T10:36:34.111Z,12.47
2019-04-03T10:39:06.128Z,11.87
2019-04-03T10:41:36.329Z,12.70
2019-04-03T10:44:09.297Z,12.47
2019-04-03T10:46:38.859Z,12.43
2019-04-03T10:49:09.468Z,12.17
2019-04-03T10:51:41.609Z,11.70
2019-04-03T10:54:12.187Z,12.43
2019-04-03T10:56:42.496Z,12.67
2019-04-03T10:59:13.886Z,11.53
2019-04-03T11:01:44.807Z,11.73
2019-04-03T11:04:15.138Z,11.30
2019-04-03T11:06:45.411Z,10.70
2019-04-03T11:09:15.862Z,10.53
2019-04-03T11:11:46.573Z,11.20
2019-04-03T11:14:18.691Z,11.27
2019-04-03T11:16:49.705Z,11.13
2019-04-03T11:19:20.367Z,10.43
2019-04-03T11:21:52.426Z,11.07
2019-04-03T11:24:22.648Z,10.97
2019-04-03T11:26:54.013Z,10.90
2019-04-03T11:29:24.249Z,10.97
2019-04-03T11:31:54.588Z,11.60
2019-04-03T11:34:25.121Z,10.73
2019-04-03T11:36:55.488Z,11.47
2019-04-03T11:39:25.914Z,11.90
2019-04-03T11:41:56.509Z,10.63
2019-04-03T11:44:29.954Z,11.63
2019-04-03T11:47:00.375Z,10.37
2019-04-03T11:49:30.907Z,10.70
2019-04-03T11:52:01.979Z,11.40
2019-04-03T11:54:32.445Z,11.97
2019-04-03T11:57:03.510Z,11.23
2019-04-03T11:59:35.073Z,11.97
2019-04-03T12:02:07.435Z,11.53
2019-04-03T12:04:40.226Z,10.93
2019-04-03T12:07:12.214Z,11.40
2019-04-03T12:09:42.748Z,10.80
2019-04-03T12:12:13.014Z,10.13
2019-04-03T12:14:44.479Z,10.60
2019-04-03T12:17:15.217Z,11.00
2019-04-03T12:19:46.135Z,10.13
2019-04-03T12:22:16.639Z,10.23
2019-04-03T12:24:48.742Z,10.93
2019-04-03T12:27:20.885Z,10.23
2019-04-03T12:29:51.978Z,10.17
2019-04-03T12:32:23.185Z,9.73
2019-04-03T12:34:53.485Z,9.00
2019-04-03T12:37:25.013Z,10.70
2019-04-03T12:39:58.259Z,9.47
2019-04-03T12:42:28.854Z,8.80
2019-04-03T12:44:59.795Z,9.83
2019-04-03T12:47:30.379Z,9.83
2019-04-03T12:50:01.117Z,9.23
2019-04-03T12:52:31.338Z,9.93
2019-04-03T12:55:01.862Z,10.27
2019-04-03T12:57:33.750Z,12.43
2019-04-03T13:00:05.190Z,11.23
2019-04-03T13:02:35.720Z,11.40
2019-04-03T13:05:07.746Z,10.50
2019-04-03T13:07:38.402Z,11.10
2019-04-03T13:10:11.080Z,10.90
2019-04-03T13:12:41.565Z,10.27
2019-04-03T13:15:12.748Z,9.40
2019-04-03T13:17:44.291Z,9.73
2019-04-03T13:20:15.676Z,9.57
2019-04-03T13:22:46.216Z,10.33
2019-04-03T13:25:20.241Z,10.93
2019-04-03T13:27:48.493Z,10.27
2019-04-03T13:30:18.929Z,10.67
2019-04-03T13:32:58.387Z,10.00
2019-04-03T13:35:21.240Z,9.83
2019-04-03T13:37:54.382Z,10.10
2019-04-03T13:40:23.841Z,9.70
2019-04-03T13:42:54.083Z,9.60
2019-04-03T13:45:24.806Z,9.40
2019-04-03T13:47:56.518Z,9.17
2019-04-03T13:50:26.982Z,10.03
2019-04-03T13:52:58.577Z,10.27
2019-04-03T13:55:32.885Z,9.70
2019-04-03T13:58:01.227Z,10.00
2019-04-03T14:00:32.852Z,10.97
2019-04-03T14:03:03.870Z,10.47
2019-04-03T14:05:36.115Z,10.77
2019-04-03T14:08:07.419Z,10.37
2019-04-03T14:10:38.277Z,11.83
2019-04-03T14:13:11.359Z,11.20
2019-04-03T14:15:42.097Z,11.60
2019-04-03T14:18:13.566Z,10.67
2019-04-03T14:20:44.920Z,11.57
2019-04-03T14:23:15.241Z,11.30
2019-04-03T14:25:46.032Z,12.43
2019-04-03T14:28:16.202Z,11.63
2019-04-03T14:30:46.407Z,12.17
2019-04-03T14:33:19.210Z,11.17
2019-04-03T14:35:53.984Z,10.27
2019-04-03T14:38:22.370Z,11.10
2019-04-03T14:40:52.824Z,11.40
2019-04-03T14:43:23.089Z,11.70
2019-04-03T14:45:53.767Z,12.80
2019-04-03T14:48:26.146Z,12.20
2019-04-03T14:50:56.043Z,12.50
2019-04-03T14:53:26.292Z,11.90
2019-04-03T14:55:58.175Z,11.30
2019-04-03T14:58:29.244Z,11.13
2019-04-03T15:00:59.719Z,11.57
2019-04-03T15:03:33.611Z,11.03
2019-04-03T15:06:03.594Z,11.60
2019-04-03T15:08:33.779Z,11.93
2019-04-03T15:11:04.468Z,12.13
2019-04-03T15:13:34.914Z,11.70
2019-04-03T15:16:05.760Z,10.40
2019-04-03T15:18:36.179Z,11.00
2019-04-03T15:21:06.704Z,10.53
2019-04-03T15:23:40.770Z,11.07
2019-04-03T15:26:09.664Z,11.97
2019-04-03T15:28:39.881Z,11.33
2019-04-03T15:31:10.095Z,11.60
2019-04-03T15:33:40.315Z,11.03
2019-04-03T15:36:10.692Z,11.10
2019-04-03T15:38:40.970Z,11.27
2019-04-03T15:41:12.528Z,11.57
2019-04-03T15:43:45.590Z,11.33
2019-04-03T15:46:15.203Z,13.17
2019-04-03T15:48:45.564Z,11.40
2019-04-03T15:51:16.677Z,12.00
2019-04-03T15:53:47.428Z,10.87
2019-04-03T15:56:18.961Z,11.20
2019-04-03T15:58:50.946Z,11.40
2019-04-03T16:01:21.207Z,11.17
2019-04-03T16:03:51.514Z,10.10
2019-04-03T16:06:21.729Z,11.03
2019-04-03T16:08:53.525Z,11.17
2019-04-03T16:11:24.120Z,11.33
2019-04-03T16:13:55.878Z,11.57
2019-04-03T16:19:43.339Z,10.33
2019-04-03T16:22:46.294Z,11.30
2019-04-03T16:25:17.711Z,10.53
2019-04-03T16:27:49.009Z,11.67
2019-04-03T16:30:21.176Z,11.67
2019-04-03T16:32:51.942Z,11.73
2019-04-03T16:35:22.966Z,11.57
2019-04-03T16:37:56.651Z,10.80
2019-04-03T16:40:25.825Z,11.53
2019-04-03T16:42:56.595Z,11.10
2019-04-03T16:45:27.087Z,10.97
2019-04-03T16:47:57.946Z,10.57
2019-04-03T16:50:28.712Z,12.30
2019-04-03T16:52:59.076Z,11.77
2019-04-03T16:55:29.342Z,12.00
2019-04-03T16:57:59.722Z,12.20
2019-04-03T17:00:29.947Z,12.97
2019-04-03T17:03:01.239Z,11.53
2019-04-03T17:05:31.551Z,12.60
2019-04-03T17:08:02.020Z,13.50
2019-04-03T17:10:32.364Z,14.00
2019-04-03T17:13:02.651Z,14.00
2019-04-03T17:15:52.640Z,14.50
2019-04-03T17:18:24.950Z,14.20
2019-04-03T17:20:56.951Z,14.57
2019-04-03T17:23:27.253Z,13.47
2019-04-03T17:25:57.939Z,13.37
2019-04-03T17:28:28.253Z,13.80
2019-04-03T17:30:58.611Z,12.67
2019-04-03T17:33:28.894Z,13.90
2019-04-03T17:35:59.125Z,13.63
2019-04-03T17:38:32.605Z,13.90
2019-04-03T17:41:01.446Z,13.30
2019-04-03T17:43:31.718Z,14.03
2019-04-03T17:46:02.088Z,13.57
2019-04-03T17:48:32.383Z,13.63
2019-04-03T17:51:03.805Z,15.10
2019-04-03T17:53:34.847Z,14.07
2019-04-03T17:56:12.351Z,13.33
2019-04-03T17:58:41.185Z,14.57
2019-04-03T18:01:11.419Z,14.53
2019-04-03T18:04:14.381Z,15.57
2019-04-03T18:07:30.439Z,14.33
2019-04-03T18:10:18.841Z,13.03
2019-04-03T18:12:50.159Z,14.77
2019-04-03T18:15:51.968Z,13.77
2019-04-03T18:18:28.520Z,13.10
2019-04-03T18:20:58.792Z,13.37
2019-04-03T18:23:31.813Z,13.73
2019-04-03T18:26:02.180Z,13.50
2019-04-03T18:28:33.931Z,12.90
2019-04-03T18:31:05.076Z,13.23
2019-04-03T18:33:35.326Z,13.30
2019-04-03T18:36:06.860Z,13.40
2019-04-03T18:38:39.532Z,13.00
2019-04-03T18:41:09.834Z,12.47
2019-04-03T18:43:40.128Z,14.07
2019-04-03T18:46:10.416Z,13.70
2019-04-03T18:48:52.587Z,13.60
2019-04-03T18:51:12.578Z,14.80
2019-04-03T18:53:42.914Z,14.03
2019-04-03T18:56:13.784Z,13.40
2019-04-03T18:58:44.999Z,13.17
2019-04-03T19:01:17.166Z,14.20
2019-04-03T19:03:48.026Z,12.63
2019-04-03T19:06:19.228Z,13.17
2019-04-03T19:08:50.106Z,13.97
2019-04-03T19:11:20.778Z,13.83
2019-04-03T19:13:51.069Z,13.03
2019-04-03T19:16:29.554Z,13.37
2019-04-03T19:18:54.254Z,13.13
2019-04-03T19:21:28.442Z,13.23
2019-04-03T19:23:56.844Z,13.23
2019-04-03T19:26:27.668Z,14.47
2019-04-03T19:28:57.926Z,13.00
2019-04-03T19:31:28.214Z,13.27
2019-04-03T19:33:58.413Z,13.73
2019-04-03T19:36:29.983Z,12.60
2019-04-03T19:39:00.649Z,13.67
2019-04-03T19:41:32.447Z,13.43
2019-04-03T19:44:02.718Z,13.03
2019-04-03T19:46:32.982Z,13.70
2019-04-03T19:49:03.237Z,12.90
2019-04-03T19:51:37.191Z,13.70
2019-04-03T19:54:06.521Z,14.00
2019-04-03T19:56:36.933Z,13.03
2019-04-03T19:59:07.412Z,12.27
2019-04-03T20:01:38.948Z,13.80
2019-04-03T20:04:09.924Z,14.27
2019-04-03T20:06:40.190Z,12.90
2019-04-03T20:09:10.895Z,13.87
2019-04-03T20:11:41.283Z,12.00
2019-04-03T20:14:12.100Z,13.13
2019-04-03T20:16:42.454Z,12.23
2019-04-03T20:19:13.121Z,12.37
2019-04-03T20:21:43.451Z,12.77
2019-04-03T20:24:13.686Z,13.53
2019-04-03T20:26:46.381Z,12.30
2019-04-03T20:29:16.173Z,12.67
2019-04-03T20:31:46.712Z,12.40
2019-04-03T20:34:16.966Z,13.07
2019-04-03T20:36:47.204Z,13.70
2019-04-03T20:39:17.791Z,12.83
2019-04-03T20:41:48.179Z,13.43
2019-04-03T20:44:18.382Z,13.70
2019-04-03T20:46:48.579Z,14.50
2019-04-03T20:49:18.880Z,13.90
2019-04-03T20:51:49.127Z,13.97
2019-04-03T20:54:21.383Z,12.90
2019-04-03T20:56:57.672Z,13.27
2019-04-03T20:59:23.249Z,14.20
2019-04-03T21:01:53.447Z,13.53
2019-04-03T21:04:23.765Z,13.57
2019-04-03T21:06:54.043Z,13.93
2019-04-03T21:09:24.229Z,13.63
2019-04-03T21:11:54.416Z,13.67
2019-04-03T21:14:26.253Z,13.60
2019-04-03T21:16:56.537Z,13.90
2019-04-03T21:19:27.073Z,14.13
2019-04-03T21:21:57.724Z,14.20
2019-04-03T21:24:29.219Z,13.57
2019-04-03T21:26:59.479Z,14.33
2019-04-03T21:29:29.670Z,13.17
2019-04-03T21:32:00.110Z,13.77
2019-04-03T21:34:32.452Z,13.60
2019-04-03T21:37:02.334Z,13.70
2019-04-03T21:39:33.887Z,14.80
2019-04-03T21:42:04.440Z,13.50
2019-04-03T21:44:34.701Z,13.00
2019-04-03T21:47:04.967Z,14.60
2019-04-03T21:49:35.167Z,14.43
2019-04-03T21:52:05.638Z,13.00
2019-04-03T21:54:35.903Z,13.97
2019-04-03T21:57:06.788Z,13.57
2019-04-03T21:59:37.102Z,13.83
2019-04-03T22:02:07.292Z,14.13
2019-04-03T22:04:37.528Z,14.00
2019-04-03T22:07:07.798Z,14.83
2019-04-03T22:09:38.122Z,14.73
2019-04-03T22:12:08.587Z,13.17
2019-04-03T22:14:38.892Z,13.27
2019-04-03T22:17:11.411Z,13.93
2019-04-03T22:19:42.043Z,14.63
2019-04-03T22:22:12.391Z,13.93
2019-04-03T22:24:42.605Z,14.67
2019-04-03T22:27:12.849Z,14.63
2019-04-03T22:29:43.092Z,14.37
2019-04-03T22:32:13.361Z,14.33
2019-04-03T22:34:43.598Z,13.57
2019-04-03T22:37:13.791Z,14.23
2019-04-03T22:39:44.026Z,14.13
2019-04-03T22:42:15.060Z,12.93
2019-04-03T22:44:47.661Z,14.07
2019-04-03T22:47:17.717Z,15.30
2019-04-03T22:49:48.305Z,14.20
2019-04-03T22:52:18.589Z,14.17
2019-04-03T22:54:48.872Z,15.60
2019-04-03T22:57:19.817Z,15.27
2019-04-03T22:59:50.465Z,15.13
2019-04-03T23:02:20.719Z,14.90
2019-04-03T23:04:50.936Z,13.73
2019-04-03T23:07:21.465Z,13.17
2019-04-03T23:09:51.759Z,13.87
2019-04-03T23:12:22.085Z,12.80
2019-04-03T23:14:52.428Z,13.37
2019-04-03T23:17:22.729Z,13.07
2019-04-03T23:19:53.717Z,12.97
2019-04-03T23:22:25.919Z,13.67
2019-04-03T23:24:56.034Z,13.90
2019-04-03T23:27:26.422Z,14.30
2019-04-03T23:29:56.815Z,13.10
2019-04-03T23:32:28.206Z,13.73
2019-04-03T23:34:58.481Z,13.90
2019-04-03T23:37:28.815Z,12.87
2019-04-03T23:40:01.045Z,13.03
2019-04-03T23:42:31.260Z,14.10
2019-04-03T23:45:01.622Z,13.10
2019-04-03T23:47:32.014Z,14.50
2019-04-03T23:50:02.353Z,13.40
2019-04-03T23:52:32.646Z,12.23
2019-04-03T23:55:04.822Z,13.73
2019-04-03T23:57:35.173Z,14.57
